Teterboro, NJ

7:02 PM EDT on March 26, 2015 (GMT -0400)
Teterboro | | Change Station
CLOSE
Current Station
Airport
Location: Teterboro,
Elevation: 7 ft
Nearby Weather Stations

Elev 7 ft 40.86 °N, 74.06 °W | Updated 11 minutes ago

Mostly Cloudy
Mostly Cloudy
54 °F
Feels Like 54 °F
N
0
Wind Variable Wind from North

Today
High -- | Low -- °F
--% Chance of Precip.
Yesterday
High -- | Low -- °F
Precip. -- in
6:50 AM 7:14 PM
Waxing Crescent, 46% visible
Pressure 29.58 in
Visibility 3.0 miles
Clouds Mostly Cloudy 2600 ft
Dew Point 51 °F
Humidity 90%
Rainfall 0.08 in
Snow Depth Not available.
UV 0 out of 12
Pollen 4.10 out of 12
Air Quality Not available.
Flu Activity Not available.
METAR KTEB 262251Z 00000KT 3SM BR BKN026 12/11 A2958 RMK AO2 SFC VIS 4 RAE00 SLP015 P0000 T01220106

More Conditions Fewer Conditions

Pressure 29.58 in
Visibility 3.0 miles
Clouds Mostly Cloudy 2600 ft
Dew Point 51 °F
Humidity 90%
Rainfall 0.08 in
Snow Depth Not available.
UV 0 out of 12
Pollen 4.10 out of 12
Air Quality Not available.
Flu Activity Not available.
METAR KTEB 262251Z 00000KT 3SM BR BKN026 12/11 A2958 RMK AO2 SFC VIS 4 RAE00 SLP015 P0000 T01220106

More Conditions Fewer Conditions

10-Day Weather Forecast

Almanac

Astronomy

Mar. 26, 2015 Rise Set
Actual Time
Civil Twilight
Nautical Twilight
Astronomical Twilight
Moon
Length of Visible Light
Length of Day
Tomorrow will be .
, % of the Moon is Illuminated

Today's Extremes

State Highs State Lows

Community

WunderPhotos

Upload Photos

1,808,632 photos uploaded!

WunderBlogs® & News

Nearby

Air Quality

  Air Quality AQ Index Pollutant
Not available.

Snow Depth

Station Depth Elevation

Earthquake Activity

City Distance Mag. Time & Date
Minimum magnitude displayed is 2.5.

Coastal Water Temperatures

Place Temperature

Stations

Nearby Weather Stations

Station Location Temp. Windchill Dew Point Humidity Wind Precip. Elev Updated Type